Time;durP1;ratioP1;P1;durP2;ratioP2;P2;SDS_P1;SDS_P2;PMS_P1;PMS_P2;Temp;Humidity;BMP_temperature;BMP_pressure;BME280_temperature;BME280_humidity;BME280_pressure;Samples;Min_cycle;Max_cycle;Signal;HPM_P1;HPM_P2
2023/12/31 00:01:04;;;;;;;4.57;2.53;;;;;;;;;;2079550;28;20030;-75
2023/12/31 00:02:23;;;;;;;4.47;2.83;;;;;;;;;;2079274;28;20021;-75
2023/12/31 00:03:42;;;;;;;3.33;2.95;;;;;;;;;;2074300;28;20104;-75
2023/12/31 00:05:01;;;;;;;3.15;2.90;;;;;;;;;;2078401;28;20116;-75
2023/12/31 00:06:21;;;;;;;8.75;3.08;;;;;;;;;;2078765;28;20061;-75
2023/12/31 00:07:40;;;;;;;2.95;2.55;;;;;;;;;;2080280;28;20034;-75
2023/12/31 00:08:59;;;;;;;2.47;2.28;;;;;;;;;;2075594;28;20030;-76
2023/12/31 00:10:18;;;;;;;3.05;2.75;;;;;;;;;;2077945;28;20017;-75
2023/12/31 00:11:37;;;;;;;3.00;2.50;;;;;;;;;;2080161;28;20025;-75
2023/12/31 00:12:56;;;;;;;4.32;2.60;;;;;;;;;;2080456;28;20034;-75
2023/12/31 00:14:15;;;;;;;3.17;2.47;;;;;;;;;;2079428;28;20021;-75
2023/12/31 00:15:34;;;;;;;3.13;2.33;;;;;;;;;;2074562;28;20029;-75
2023/12/31 00:16:53;;;;;;;3.42;3.03;;;;;;;;;;2071907;28;20038;-75
2023/12/31 00:18:12;;;;;;;3.05;2.22;;;;;;;;;;2078825;28;20033;-75
2023/12/31 00:19:31;;;;;;;3.83;2.78;;;;;;;;;;2087750;28;20026;-76
2023/12/31 00:20:50;;;;;;;3.50;3.20;;;;;;;;;;2081645;28;20042;-75
2023/12/31 00:22:09;;;;;;;2.85;2.65;;;;;;;;;;2074084;28;20022;-76
2023/12/31 00:23:28;;;;;;;3.83;2.45;;;;;;;;;;2070779;28;20420;-75
2023/12/31 00:24:47;;;;;;;3.90;2.80;;;;;;;;;;2079358;28;20029;-74
2023/12/31 00:26:06;;;;;;;2.92;2.50;;;;;;;;;;2075774;28;20038;-75
2023/12/31 00:27:25;;;;;;;3.95;2.60;;;;;;;;;;2081871;28;20030;-76
2023/12/31 00:28:44;;;;;;;3.40;3.10;;;;;;;;;;2081641;28;20034;-75
2023/12/31 00:30:03;;;;;;;3.83;2.42;;;;;;;;;;2075367;28;20037;-75
2023/12/31 00:31:22;;;;;;;4.20;2.83;;;;;;;;;;2072369;28;20026;-75
2023/12/31 00:32:41;;;;;;;2.88;2.33;;;;;;;;;;2079407;28;20037;-74
2023/12/31 00:34:00;;;;;;;3.63;2.60;;;;;;;;;;2080677;28;20419;-75
2023/12/31 00:35:19;;;;;;;5.00;2.45;;;;;;;;;;2080297;28;20037;-75
2023/12/31 00:36:38;;;;;;;2.88;2.58;;;;;;;;;;2080053;28;20060;-75
2023/12/31 00:37:57;;;;;;;3.97;2.20;;;;;;;;;;2079928;28;20030;-76
2023/12/31 00:39:16;;;;;;;3.65;2.47;;;;;;;;;;2079774;28;20452;-75
2023/12/31 00:40:35;;;;;;;4.07;2.33;;;;;;;;;;2079948;28;20025;-74
2023/12/31 00:41:54;;;;;;;1.95;1.83;;;;;;;;;;2079320;28;20025;-75
2023/12/31 00:43:13;;;;;;;2.63;2.03;;;;;;;;;;2075249;28;20093;-75
2023/12/31 00:44:32;;;;;;;2.15;2.03;;;;;;;;;;2078250;28;20112;-75
2023/12/31 00:45:51;;;;;;;1.80;1.70;;;;;;;;;;2079859;28;20034;-75
2023/12/31 00:47:09;;;;;;;1.88;1.77;;;;;;;;;;2075543;28;20022;-75
2023/12/31 00:48:28;;;;;;;2.47;1.70;;;;;;;;;;2077314;28;20483;-75
2023/12/31 00:49:47;;;;;;;1.45;1.33;;;;;;;;;;2080344;28;20029;-75
2023/12/31 00:51:06;;;;;;;1.80;1.70;;;;;;;;;;2075047;28;20134;-75
2023/12/31 00:52:26;;;;;;;2.00;1.90;;;;;;;;;;2073323;28;20511;-75
2023/12/31 00:53:44;;;;;;;1.77;1.67;;;;;;;;;;2079542;28;20116;-75
2023/12/31 00:55:04;;;;;;;1.65;1.55;;;;;;;;;;2075201;28;20058;-75
2023/12/31 00:56:23;;;;;;;2.03;1.80;;;;;;;;;;2074589;28;20533;-75
2023/12/31 00:57:41;;;;;;;1.60;1.50;;;;;;;;;;2080148;28;20029;-75
2023/12/31 00:59:02;;;;;;;1.50;1.40;;;;;;;;;;2077638;28;20215;-76
2023/12/31 01:00:21;;;;;;;1.70;1.50;;;;;;;;;;2073318;28;20029;-75
2023/12/31 01:01:40;;;;;;;1.92;1.73;;;;;;;;;;2078638;28;20045;-75
2023/12/31 01:02:58;;;;;;;2.45;1.40;;;;;;;;;;2081135;28;20124;-75
2023/12/31 01:04:17;;;;;;;1.70;1.48;;;;;;;;;;2082122;28;20475;-75
2023/12/31 01:05:37;;;;;;;1.58;1.48;;;;;;;;;;2092071;28;20006;-76
2023/12/31 01:06:56;;;;;;;1.30;1.20;;;;;;;;;;2088849;28;20033;-74
2023/12/31 01:08:15;;;;;;;3.25;1.80;;;;;;;;;;2088132;28;20037;-75
2023/12/31 01:09:34;;;;;;;1.52;1.42;;;;;;;;;;2082552;28;20033;-75
2023/12/31 01:10:53;;;;;;;3.08;1.48;;;;;;;;;;2076407;28;20029;-75
2023/12/31 01:12:12;;;;;;;1.45;1.35;;;;;;;;;;2076597;28;20033;-75
2023/12/31 01:13:31;;;;;;;1.58;1.40;;;;;;;;;;2074361;28;20034;-75
2023/12/31 01:14:50;;;;;;;1.65;1.55;;;;;;;;;;2074106;28;20034;-74
2023/12/31 01:16:09;;;;;;;2.58;1.80;;;;;;;;;;2079268;28;20025;-75
2023/12/31 01:17:28;;;;;;;2.28;1.80;;;;;;;;;;2081093;28;20045;-75
2023/12/31 01:18:47;;;;;;;1.83;1.50;;;;;;;;;;2080958;28;20037;-75
2023/12/31 01:20:08;;;;;;;2.13;1.45;;;;;;;;;;2080241;28;20116;-75
2023/12/31 01:21:27;;;;;;;2.10;1.52;;;;;;;;;;2082023;28;20109;-75
2023/12/31 01:22:46;;;;;;;3.40;1.75;;;;;;;;;;2078423;28;20030;-73
2023/12/31 01:24:05;;;;;;;3.05;1.45;;;;;;;;;;2087972;28;20025;-75
2023/12/31 01:25:25;;;;;;;2.78;1.58;;;;;;;;;;2091347;28;20037;-73
2023/12/31 01:26:44;;;;;;;1.98;1.75;;;;;;;;;;2089312;28;20026;-75
2023/12/31 01:28:04;;;;;;;3.83;1.75;;;;;;;;;;2080463;28;20409;-75
2023/12/31 01:29:23;;;;;;;1.50;1.27;;;;;;;;;;2076709;28;20054;-75
2023/12/31 01:30:42;;;;;;;1.85;1.60;;;;;;;;;;2080972;28;20025;-74
2023/12/31 01:32:01;;;;;;;3.08;1.55;;;;;;;;;;2080712;28;20042;-75
2023/12/31 01:33:20;;;;;;;2.40;1.70;;;;;;;;;;2081040;28;20026;-75
2023/12/31 01:34:39;;;;;;;1.83;1.73;;;;;;;;;;2081744;28;20526;-74
2023/12/31 01:35:58;;;;;;;2.08;1.45;;;;;;;;;;2082122;28;20030;-75
2023/12/31 01:37:17;;;;;;;1.98;1.73;;;;;;;;;;2081889;28;20022;-75
2023/12/31 01:38:37;;;;;;;3.53;2.00;;;;;;;;;;2077402;28;20025;-75
2023/12/31 01:39:57;;;;;;;1.85;1.70;;;;;;;;;;2078585;28;20034;-75
2023/12/31 01:41:16;;;;;;;1.67;1.48;;;;;;;;;;2077287;28;20069;-76
2023/12/31 01:42:35;;;;;;;3.90;1.67;;;;;;;;;;2074360;28;20057;-75
2023/12/31 01:44:02;;;;;;;2.38;1.40;;;;;;;;;;2073014;28;20042;-75
2023/12/31 01:45:21;;;;;;;2.10;1.33;;;;;;;;;;2078843;28;20025;-74
2023/12/31 01:46:40;;;;;;;2.35;1.65;;;;;;;;;;2081554;28;20029;-75
2023/12/31 01:47:59;;;;;;;1.75;1.58;;;;;;;;;;2081391;28;20029;-76
2023/12/31 01:49:18;;;;;;;1.42;1.30;;;;;;;;;;2082347;28;20108;-75
2023/12/31 01:50:38;;;;;;;1.40;1.30;;;;;;;;;;2074660;28;20026;-75
2023/12/31 01:51:57;;;;;;;3.28;1.50;;;;;;;;;;2079796;28;20029;-75
2023/12/31 01:53:16;;;;;;;1.67;1.45;;;;;;;;;;2080604;28;20494;-75
2023/12/31 01:54:35;;;;;;;1.50;1.40;;;;;;;;;;2076310;28;20066;-75
2023/12/31 01:55:54;;;;;;;1.40;1.30;;;;;;;;;;2079338;28;20061;-75
2023/12/31 01:57:15;;;;;;;1.95;1.85;;;;;;;;;;2080721;28;20053;-75
2023/12/31 01:58:33;;;;;;;3.30;1.63;;;;;;;;;;2081377;28;20030;-75
2023/12/31 01:59:53;;;;;;;2.72;1.42;;;;;;;;;;2077045;28;20026;-75
2023/12/31 02:01:12;;;;;;;2.45;1.45;;;;;;;;;;2079076;28;20415;-75
2023/12/31 02:02:31;;;;;;;1.67;1.30;;;;;;;;;;2074445;28;20100;-75
2023/12/31 02:03:50;;;;;;;1.30;1.20;;;;;;;;;;2065907;28;20030;-75
2023/12/31 02:05:11;;;;;;;1.50;1.40;;;;;;;;;;2077854;28;20033;-75
2023/12/31 02:06:30;;;;;;;1.60;1.40;;;;;;;;;;2076159;28;20053;-75
2023/12/31 02:07:49;;;;;;;1.67;1.58;;;;;;;;;;2078992;28;20030;-75
2023/12/31 02:09:09;;;;;;;3.42;1.52;;;;;;;;;;2080640;28;20029;-75
2023/12/31 02:10:28;;;;;;;1.73;1.00;;;;;;;;;;2081661;28;20085;-75
2023/12/31 02:11:47;;;;;;;1.98;1.38;;;;;;;;;;2082533;28;20049;-75
2023/12/31 02:13:06;;;;;;;1.63;1.33;;;;;;;;;;2082838;28;20017;-75
2023/12/31 02:14:25;;;;;;;1.65;1.30;;;;;;;;;;2082176;28;20034;-74
2023/12/31 02:15:44;;;;;;;2.00;1.45;;;;;;;;;;2081185;28;20033;-75
2023/12/31 02:17:03;;;;;;;1.45;1.20;;;;;;;;;;2081522;28;20033;-74
2023/12/31 02:18:24;;;;;;;1.58;1.35;;;;;;;;;;2080527;28;20033;-75
2023/12/31 02:19:43;;;;;;;1.52;1.30;;;;;;;;;;2080399;28;20553;-74
2023/12/31 02:21:02;;;;;;;1.50;1.30;;;;;;;;;;2081849;28;20037;-75
2023/12/31 02:22:21;;;;;;;2.30;1.10;;;;;;;;;;2080857;28;20065;-74
2023/12/31 02:23:41;;;;;;;1.90;1.45;;;;;;;;;;2081733;28;20029;-74
2023/12/31 02:25:04;;;;;;;1.65;0.98;;;;;;;;;;2081154;28;20025;-74
2023/12/31 02:26:24;;;;;;;1.30;1.17;;;;;;;;;;2081808;28;20542;-75
2023/12/31 02:27:43;;;;;;;2.13;1.10;;;;;;;;;;2069375;28;20049;-74
2023/12/31 02:29:02;;;;;;;1.45;1.15;;;;;;;;;;2070886;28;20082;-74
2023/12/31 02:30:21;;;;;;;1.63;1.30;;;;;;;;;;2078586;28;20021;-75
2023/12/31 02:31:40;;;;;;;2.08;1.17;;;;;;;;;;2075081;28;20109;-74
2023/12/31 02:32:59;;;;;;;4.45;1.48;;;;;;;;;;2079141;28;20029;-75
2023/12/31 02:34:18;;;;;;;1.58;1.48;;;;;;;;;;2081402;28;20491;-76
2023/12/31 02:35:37;;;;;;;2.45;1.55;;;;;;;;;;2076842;28;20029;-75
2023/12/31 02:36:56;;;;;;;1.42;1.30;;;;;;;;;;2072182;28;20033;-75
2023/12/31 02:38:15;;;;;;;1.45;1.15;;;;;;;;;;2071157;28;20038;-75
2023/12/31 02:39:34;;;;;;;1.30;1.05;;;;;;;;;;2078599;28;20064;-75
2023/12/31 02:40:53;;;;;;;1.75;1.15;;;;;;;;;;2081409;28;20029;-75
2023/12/31 02:42:12;;;;;;;1.00;0.90;;;;;;;;;;2076357;28;20121;-75
2023/12/31 02:43:30;;;;;;;1.30;1.20;;;;;;;;;;2078240;28;20059;-75
2023/12/31 02:44:49;;;;;;;2.00;1.30;;;;;;;;;;2078885;28;20052;-75
2023/12/31 02:46:08;;;;;;;1.70;1.10;;;;;;;;;;2080370;28;20071;-76
2023/12/31 02:47:27;;;;;;;3.40;1.52;;;;;;;;;;2075853;28;20022;-75
2023/12/31 02:48:47;;;;;;;2.03;1.58;;;;;;;;;;2078914;28;20072;-74
2023/12/31 02:50:06;;;;;;;1.42;1.33;;;;;;;;;;2081496;28;20432;-74
2023/12/31 02:51:25;;;;;;;1.70;1.13;;;;;;;;;;2082946;28;20025;-75
2023/12/31 02:52:44;;;;;;;1.45;1.13;;;;;;;;;;2081205;28;20390;-74
2023/12/31 02:54:03;;;;;;;3.17;1.10;;;;;;;;;;2081326;28;20033;-75
2023/12/31 02:55:22;;;;;;;2.72;1.27;;;;;;;;;;2075420;28;20124;-75
2023/12/31 02:56:42;;;;;;;2.67;1.30;;;;;;;;;;2070421;28;20534;-75
2023/12/31 02:58:01;;;;;;;1.10;0.80;;;;;;;;;;2079624;28;20097;-75
2023/12/31 02:59:20;;;;;;;1.40;0.70;;;;;;;;;;2080660;28;20030;-75
2023/12/31 03:00:41;;;;;;;0.90;0.85;;;;;;;;;;2080952;28;20030;-75
2023/12/31 03:02:00;;;;;;;4.18;1.08;;;;;;;;;;2080069;28;20117;-75
2023/12/31 03:03:19;;;;;;;0.93;0.80;;;;;;;;;;2079679;28;20037;-75
2023/12/31 03:04:39;;;;;;;4.20;1.10;;;;;;;;;;2081335;28;20449;-76
2023/12/31 03:05:58;;;;;;;1.23;1.08;;;;;;;;;;2081393;28;20033;-75
2023/12/31 03:07:17;;;;;;;1.23;0.90;;;;;;;;;;2080668;28;20471;-75
2023/12/31 03:08:36;;;;;;;1.88;0.88;;;;;;;;;;2074600;28;20033;-75
2023/12/31 03:09:55;;;;;;;1.40;0.90;;;;;;;;;;2079848;28;20173;-75
2023/12/31 03:11:14;;;;;;;1.60;1.10;;;;;;;;;;2076399;28;20029;-75
2023/12/31 03:12:33;;;;;;;2.03;0.90;;;;;;;;;;2078786;28;20609;-74
2023/12/31 03:13:52;;;;;;;0.80;0.73;;;;;;;;;;2080984;28;20042;-75
2023/12/31 03:15:11;;;;;;;1.27;0.80;;;;;;;;;;2080269;28;20038;-75
2023/12/31 03:16:30;;;;;;;2.22;1.13;;;;;;;;;;2080781;28;20422;-75
2023/12/31 03:17:49;;;;;;;1.08;0.98;;;;;;;;;;2080293;28;20041;-75
2023/12/31 03:19:08;;;;;;;0.77;0.77;;;;;;;;;;2076304;28;20029;-75
2023/12/31 03:20:27;;;;;;;1.50;1.00;;;;;;;;;;2077752;28;20037;-74
2023/12/31 03:21:46;;;;;;;1.08;0.75;;;;;;;;;;2080974;28;20462;-75
2023/12/31 03:23:05;;;;;;;1.58;0.80;;;;;;;;;;2076105;28;21147;-76
2023/12/31 03:24:24;;;;;;;0.95;0.73;;;;;;;;;;2073332;28;20034;-75
2023/12/31 03:25:43;;;;;;;2.00;0.73;;;;;;;;;;2076552;28;20034;-75
2023/12/31 03:27:02;;;;;;;1.40;0.82;;;;;;;;;;2080088;28;20033;-75
2023/12/31 03:28:21;;;;;;;3.47;1.08;;;;;;;;;;2074642;28;20021;-75
2023/12/31 03:29:40;;;;;;;1.27;0.77;;;;;;;;;;2075021;28;20045;-74
2023/12/31 03:30:59;;;;;;;1.23;0.60;;;;;;;;;;2078575;28;20021;-75
2023/12/31 03:32:17;;;;;;;1.65;0.85;;;;;;;;;;2076542;28;20053;-75
2023/12/31 03:33:36;;;;;;;2.80;0.68;;;;;;;;;;2076913;28;20030;-75
2023/12/31 03:34:55;;;;;;;0.68;0.60;;;;;;;;;;2080929;28;20029;-75
2023/12/31 03:36:14;;;;;;;0.88;0.68;;;;;;;;;;2080826;28;20057;-75
2023/12/31 03:37:34;;;;;;;0.80;0.60;;;;;;;;;;2081564;28;20422;-75
2023/12/31 03:38:54;;;;;;;1.23;0.55;;;;;;;;;;2074853;28;20113;-75
2023/12/31 03:40:14;;;;;;;1.00;0.77;;;;;;;;;;2077216;28;20026;-75
2023/12/31 03:41:33;;;;;;;0.55;0.52;;;;;;;;;;2080757;28;20033;-75
2023/12/31 03:42:52;;;;;;;4.78;1.15;;;;;;;;;;2080929;28;20041;-74
2023/12/31 03:44:12;;;;;;;2.65;0.70;;;;;;;;;;2080342;28;20053;-75
2023/12/31 03:45:31;;;;;;;2.30;0.90;;;;;;;;;;2081461;28;20033;-75
2023/12/31 03:46:50;;;;;;;1.42;0.80;;;;;;;;;;2075257;28;20030;-74
2023/12/31 03:48:08;;;;;;;2.10;0.80;;;;;;;;;;2079513;28;20479;-75
2023/12/31 03:49:27;;;;;;;2.17;1.02;;;;;;;;;;2078669;28;20501;-74
2023/12/31 03:50:46;;;;;;;2.35;0.73;;;;;;;;;;2073185;28;20030;-75
2023/12/31 03:52:06;;;;;;;0.75;0.75;;;;;;;;;;2078850;28;20025;-75
2023/12/31 03:53:25;;;;;;;2.22;0.90;;;;;;;;;;2076573;28;20104;-75
2023/12/31 03:54:43;;;;;;;0.95;0.70;;;;;;;;;;2079037;28;20026;-75
2023/12/31 03:56:03;;;;;;;0.98;0.73;;;;;;;;;;2081120;28;20429;-75
2023/12/31 03:57:22;;;;;;;1.08;0.80;;;;;;;;;;2079716;28;20025;-75
2023/12/31 03:58:42;;;;;;;2.95;1.02;;;;;;;;;;2080584;28;20475;-75
2023/12/31 04:00:03;;;;;;;1.83;0.60;;;;;;;;;;2075667;28;20026;-75
2023/12/31 04:01:22;;;;;;;0.88;0.68;;;;;;;;;;2078941;28;20034;-75
2023/12/31 04:02:41;;;;;;;1.30;0.85;;;;;;;;;;2074205;28;20034;-74
2023/12/31 04:04:00;;;;;;;3.20;1.00;;;;;;;;;;2079382;28;20033;-74
2023/12/31 04:05:20;;;;;;;1.45;0.75;;;;;;;;;;2074039;28;20088;-74
2023/12/31 04:06:40;;;;;;;1.58;1.27;;;;;;;;;;2071380;28;20022;-75
2023/12/31 04:07:59;;;;;;;0.88;0.68;;;;;;;;;;2071275;28;20021;-76
2023/12/31 04:09:18;;;;;;;0.77;0.70;;;;;;;;;;2080063;28;20056;-75
2023/12/31 04:10:37;;;;;;;2.47;0.70;;;;;;;;;;2080312;28;20037;-75
2023/12/31 04:11:56;;;;;;;0.98;0.60;;;;;;;;;;2080775;28;20029;-75
2023/12/31 04:13:15;;;;;;;1.55;0.70;;;;;;;;;;2075813;28;20029;-75
2023/12/31 04:14:34;;;;;;;0.57;0.40;;;;;;;;;;2078285;28;20029;-75
2023/12/31 04:15:53;;;;;;;0.68;0.60;;;;;;;;;;2074523;28;20107;-75
2023/12/31 04:17:12;;;;;;;0.70;0.52;;;;;;;;;;2070856;28;20053;-76
2023/12/31 04:18:31;;;;;;;0.95;0.50;;;;;;;;;;2071213;28;20530;-75
2023/12/31 04:19:50;;;;;;;0.52;0.52;;;;;;;;;;2079186;28;20033;-75
2023/12/31 04:21:09;;;;;;;0.63;0.63;;;;;;;;;;2081221;28;20026;-75
2023/12/31 04:22:28;;;;;;;0.60;0.60;;;;;;;;;;2080105;28;20124;-75
2023/12/31 04:23:47;;;;;;;0.63;0.63;;;;;;;;;;2080494;28;20026;-75
2023/12/31 04:25:07;;;;;;;0.50;0.50;;;;;;;;;;2080771;28;20025;-74
2023/12/31 04:26:26;;;;;;;0.60;0.60;;;;;;;;;;2074283;28;20034;-76
2023/12/31 04:27:45;;;;;;;1.23;0.60;;;;;;;;;;2082100;28;20033;-74
2023/12/31 04:29:04;;;;;;;2.08;0.60;;;;;;;;;;2083168;28;20037;-75
2023/12/31 04:30:23;;;;;;;1.23;0.60;;;;;;;;;;2083118;28;20043;-75
2023/12/31 04:31:46;;;;;;;0.57;0.40;;;;;;;;;;2082461;28;20386;-75
2023/12/31 04:33:05;;;;;;;2.88;0.90;;;;;;;;;;2086245;28;20017;-75
2023/12/31 04:34:24;;;;;;;1.15;0.52;;;;;;;;;;2090392;28;20033;-75
2023/12/31 04:35:44;;;;;;;0.70;0.70;;;;;;;;;;2089723;28;20021;-76
2023/12/31 04:37:03;;;;;;;0.70;0.63;;;;;;;;;;2089715;28;20025;-74
2023/12/31 04:38:22;;;;;;;0.88;0.52;;;;;;;;;;2082974;28;20029;-75
2023/12/31 04:39:41;;;;;;;0.70;0.70;;;;;;;;;;2070928;28;20503;-75
2023/12/31 04:40:59;;;;;;;2.10;0.60;;;;;;;;;;2077488;28;20029;-75
2023/12/31 04:42:18;;;;;;;0.75;0.60;;;;;;;;;;2081995;28;20037;-75
2023/12/31 04:43:37;;;;;;;2.50;0.57;;;;;;;;;;2089530;28;20029;-75
2023/12/31 04:44:59;;;;;;;0.50;0.50;;;;;;;;;;2093986;28;20034;-75
2023/12/31 04:46:19;;;;;;;0.55;0.55;;;;;;;;;;2088544;28;20026;-75
2023/12/31 04:47:38;;;;;;;1.00;0.60;;;;;;;;;;2082052;28;20096;-75
2023/12/31 04:48:57;;;;;;;1.90;0.60;;;;;;;;;;2082753;28;20060;-75
2023/12/31 04:50:16;;;;;;;2.20;0.60;;;;;;;;;;2083304;28;20034;-75
2023/12/31 04:51:35;;;;;;;0.73;0.63;;;;;;;;;;2083689;28;20391;-75
2023/12/31 04:52:55;;;;;;;1.13;0.52;;;;;;;;;;2077226;28;20422;-75
2023/12/31 04:54:14;;;;;;;1.40;0.60;;;;;;;;;;2074250;28;20608;-75
2023/12/31 04:55:33;;;;;;;0.80;0.60;;;;;;;;;;2077164;28;20506;-75
2023/12/31 04:56:52;;;;;;;0.82;0.80;;;;;;;;;;2081330;28;20061;-74
2023/12/31 04:58:11;;;;;;;0.80;0.65;;;;;;;;;;2083836;28;20426;-74
2023/12/31 04:59:30;;;;;;;0.73;0.73;;;;;;;;;;2082918;28;20033;-75
2023/12/31 05:00:50;;;;;;;1.58;1.00;;;;;;;;;;2083036;28;20483;-75
2023/12/31 05:02:08;;;;;;;0.47;0.47;;;;;;;;;;2076039;28;20029;-75
2023/12/31 05:03:28;;;;;;;1.48;0.75;;;;;;;;;;2081172;28;20495;-75
2023/12/31 05:04:46;;;;;;;1.23;0.50;;;;;;;;;;2082319;28;20045;-75
2023/12/31 05:06:06;;;;;;;1.50;0.60;;;;;;;;;;2083106;28;20025;-75
2023/12/31 05:07:25;;;;;;;1.67;0.68;;;;;;;;;;2082196;28;20100;-75
2023/12/31 05:08:45;;;;;;;0.70;0.70;;;;;;;;;;2088727;28;20474;-76
2023/12/31 05:10:04;;;;;;;1.33;0.80;;;;;;;;;;2092453;28;20010;-75
2023/12/31 05:11:24;;;;;;;0.70;0.70;;;;;;;;;;2088015;28;20377;-77
2023/12/31 05:12:43;;;;;;;1.15;0.90;;;;;;;;;;2089305;28;20029;-77
2023/12/31 05:14:02;;;;;;;2.42;0.88;;;;;;;;;;2092721;28;20037;-75
2023/12/31 05:15:21;;;;;;;1.73;0.70;;;;;;;;;;2088414;28;20037;-76
2023/12/31 05:16:40;;;;;;;1.23;1.13;;;;;;;;;;2086285;28;20038;-76
2023/12/31 05:17:59;;;;;;;1.67;1.00;;;;;;;;;;2083307;28;20026;-75
2023/12/31 05:19:18;;;;;;;1.27;0.90;;;;;;;;;;2077633;28;20435;-75
2023/12/31 05:20:37;;;;;;;0.90;0.80;;;;;;;;;;2079521;28;20204;-75
2023/12/31 05:21:56;;;;;;;0.70;0.70;;;;;;;;;;2076814;28;20034;-75
2023/12/31 05:23:15;;;;;;;1.60;1.10;;;;;;;;;;2076595;28;20041;-76
2023/12/31 05:24:34;;;;;;;1.30;1.00;;;;;;;;;;2080945;28;20029;-76
2023/12/31 05:25:53;;;;;;;0.95;0.80;;;;;;;;;;2083754;28;20100;-75
2023/12/31 05:27:12;;;;;;;3.03;1.00;;;;;;;;;;2082952;28;20452;-75
2023/12/31 05:28:31;;;;;;;4.00;1.15;;;;;;;;;;2081418;28;20056;-74
2023/12/31 05:29:49;;;;;;;1.45;1.00;;;;;;;;;;2077167;28;20046;-75
2023/12/31 05:31:10;;;;;;;3.00;1.08;;;;;;;;;;2079855;28;20025;-75
2023/12/31 05:32:29;;;;;;;1.70;0.90;;;;;;;;;;2076248;28;20022;-75
2023/12/31 05:33:48;;;;;;;0.80;0.80;;;;;;;;;;2073006;28;20034;-75
2023/12/31 05:35:07;;;;;;;1.67;1.20;;;;;;;;;;2080550;28;20045;-75
2023/12/31 05:36:26;;;;;;;0.80;0.70;;;;;;;;;;2076701;28;20049;-75
2023/12/31 05:37:45;;;;;;;0.80;0.80;;;;;;;;;;2073672;28;20038;-75
2023/12/31 05:39:04;;;;;;;1.52;1.02;;;;;;;;;;2078498;28;20116;-74
2023/12/31 05:40:22;;;;;;;2.28;1.30;;;;;;;;;;2074819;28;20065;-75
2023/12/31 05:41:42;;;;;;;2.58;1.02;;;;;;;;;;2080408;28;20029;-75
2023/12/31 05:43:01;;;;;;;1.33;0.98;;;;;;;;;;2080690;28;20030;-75
2023/12/31 05:44:20;;;;;;;1.73;1.10;;;;;;;;;;2081503;28;20043;-74
2023/12/31 05:45:39;;;;;;;1.38;1.02;;;;;;;;;;2080604;28;20128;-75
2023/12/31 05:46:58;;;;;;;1.42;1.00;;;;;;;;;;2081211;28;20069;-75
2023/12/31 05:48:17;;;;;;;2.58;0.90;;;;;;;;;;2082086;28;20029;-75
2023/12/31 05:49:36;;;;;;;1.20;1.08;;;;;;;;;;2080660;28;20489;-75
2023/12/31 05:50:56;;;;;;;1.10;1.00;;;;;;;;;;2081750;28;20491;-75
2023/12/31 05:52:15;;;;;;;2.53;1.20;;;;;;;;;;2080721;28;20029;-75
2023/12/31 05:53:34;;;;;;;2.40;0.90;;;;;;;;;;2081318;28;20030;-75
2023/12/31 05:54:53;;;;;;;1.10;1.00;;;;;;;;;;2081438;28;20021;-74
2023/12/31 05:56:12;;;;;;;1.00;1.00;;;;;;;;;;2080388;28;20025;-74
2023/12/31 05:57:30;;;;;;;3.35;1.00;;;;;;;;;;2074942;28;20017;-75
2023/12/31 05:58:49;;;;;;;2.20;1.30;;;;;;;;;;2079108;28;20022;-74
2023/12/31 06:00:09;;;;;;;0.95;0.93;;;;;;;;;;2076939;28;20033;-75
2023/12/31 06:01:28;;;;;;;1.27;0.90;;;;;;;;;;2071975;28;20022;-74
2023/12/31 06:02:47;;;;;;;1.02;0.93;;;;;;;;;;2077475;28;20045;-75
2023/12/31 06:04:06;;;;;;;2.08;0.82;;;;;;;;;;2073760;28;20034;-75
2023/12/31 06:05:25;;;;;;;1.60;1.10;;;;;;;;;;2079654;28;20436;-75
2023/12/31 06:06:44;;;;;;;1.00;1.00;;;;;;;;;;2081445;28;20033;-74
2023/12/31 06:08:03;;;;;;;0.93;0.90;;;;;;;;;;2075269;28;20034;-74
2023/12/31 06:09:22;;;;;;;1.38;1.10;;;;;;;;;;2076785;28;20033;-74
2023/12/31 06:10:41;;;;;;;4.00;1.13;;;;;;;;;;2080688;28;20034;-75
2023/12/31 06:12:00;;;;;;;1.23;1.13;;;;;;;;;;2075368;28;20474;-75
2023/12/31 06:13:19;;;;;;;1.27;1.05;;;;;;;;;;2078685;28;20100;-75
2023/12/31 06:14:38;;;;;;;1.63;1.13;;;;;;;;;;2082018;28;20487;-75
2023/12/31 06:15:57;;;;;;;1.98;1.00;;;;;;;;;;2081609;28;20033;-75
2023/12/31 06:17:17;;;;;;;2.42;1.23;;;;;;;;;;2080823;28;20026;-75
2023/12/31 06:18:36;;;;;;;2.00;1.00;;;;;;;;;;2081102;28;20037;-75
2023/12/31 06:19:55;;;;;;;3.20;1.15;;;;;;;;;;2080607;28;20033;-74
2023/12/31 06:21:14;;;;;;;2.80;1.30;;;;;;;;;;2075314;28;20500;-75
2023/12/31 06:22:33;;;;;;;1.20;1.10;;;;;;;;;;2073592;28;20041;-74
2023/12/31 06:23:52;;;;;;;1.20;1.10;;;;;;;;;;2073174;28;20148;-75
2023/12/31 06:25:11;;;;;;;1.67;1.40;;;;;;;;;;2072066;28;20101;-75
2023/12/31 06:26:30;;;;;;;1.25;1.10;;;;;;;;;;2078619;28;20034;-74
2023/12/31 06:27:49;;;;;;;2.97;1.20;;;;;;;;;;2081496;28;20495;-75
2023/12/31 06:29:08;;;;;;;2.35;1.17;;;;;;;;;;2081987;28;20124;-75
2023/12/31 06:30:27;;;;;;;2.30;1.30;;;;;;;;;;2080900;28;20112;-75
2023/12/31 06:31:47;;;;;;;1.85;1.10;;;;;;;;;;2075426;28;20033;-75
2023/12/31 06:33:06;;;;;;;1.40;1.30;;;;;;;;;;2072779;28;20033;-75
2023/12/31 06:34:25;;;;;;;3.90;1.30;;;;;;;;;;2072340;28;20459;-74
2023/12/31 06:35:44;;;;;;;1.13;0.90;;;;;;;;;;2078199;28;20060;-76
2023/12/31 06:37:03;;;;;;;1.02;1.00;;;;;;;;;;2079180;28;20045;-75
2023/12/31 06:38:22;;;;;;;1.33;1.20;;;;;;;;;;2082139;28;20030;-76
2023/12/31 06:39:43;;;;;;;1.88;1.10;;;;;;;;;;2081620;28;20115;-75
2023/12/31 06:41:06;;;;;;;1.17;1.10;;;;;;;;;;2085720;28;20026;-75
2023/12/31 06:42:24;;;;;;;;;;;;;;;;;;2080601;28;20041;-76
2023/12/31 06:43:43;;;;;;;2.47;1.10;;;;;;;;;;2080582;28;19917;-75
2023/12/31 06:45:03;;;;;;;2.55;1.20;;;;;;;;;;2075970;28;20026;-75
2023/12/31 06:46:21;;;;;;;3.42;1.75;;;;;;;;;;2080122;28;20033;-74
2023/12/31 06:47:40;;;;;;;3.08;1.42;;;;;;;;;;2080780;28;20026;-74
2023/12/31 06:48:59;;;;;;;1.08;0.98;;;;;;;;;;2075464;28;20021;-75
2023/12/31 06:50:18;;;;;;;1.08;0.98;;;;;;;;;;2077820;28;21445;-75
2023/12/31 06:51:39;;;;;;;2.47;1.08;;;;;;;;;;2081164;28;20022;-75
2023/12/31 06:52:57;;;;;;;0.85;0.80;;;;;;;;;;2080969;28;20018;-75
2023/12/31 06:54:16;;;;;;;1.85;1.60;;;;;;;;;;2081749;28;20025;-74
2023/12/31 06:55:36;;;;;;;0.98;0.90;;;;;;;;;;2080096;28;20382;-75
2023/12/31 06:56:55;;;;;;;0.95;0.93;;;;;;;;;;2081703;28;20033;-75
2023/12/31 06:58:17;;;;;;;1.63;1.10;;;;;;;;;;2081113;28;20057;-75
2023/12/31 06:59:36;;;;;;;1.10;1.10;;;;;;;;;;2079975;28;20030;-74
2023/12/31 07:00:55;;;;;;;0.93;0.90;;;;;;;;;;2081272;28;20807;-75
2023/12/31 07:02:14;;;;;;;3.80;1.08;;;;;;;;;;2076874;28;20069;-75
2023/12/31 07:03:34;;;;;;;1.05;0.95;;;;;;;;;;2079724;28;20510;-75
2023/12/31 07:04:54;;;;;;;0.80;0.80;;;;;;;;;;2080016;28;20021;-74
2023/12/31 07:06:13;;;;;;;2.38;1.15;;;;;;;;;;2080030;28;20026;-75
2023/12/31 07:07:32;;;;;;;2.03;1.10;;;;;;;;;;2081742;28;20030;-75
2023/12/31 07:08:51;;;;;;;1.80;1.40;;;;;;;;;;2080235;28;20026;-75
2023/12/31 07:10:10;;;;;;;1.40;1.10;;;;;;;;;;2081894;28;20479;-75
2023/12/31 07:11:29;;;;;;;1.00;1.00;;;;;;;;;;2080803;28;20037;-75
2023/12/31 07:12:48;;;;;;;3.22;1.27;;;;;;;;;;2075155;28;20026;-75
2023/12/31 07:14:07;;;;;;;3.40;1.50;;;;;;;;;;2066047;28;20022;-75
2023/12/31 07:15:25;;;;;;;1.52;1.27;;;;;;;;;;2068842;28;20038;-75
2023/12/31 07:16:44;;;;;;;1.40;1.23;;;;;;;;;;2072442;28;20041;-75
2023/12/31 07:18:03;;;;;;;2.97;1.45;;;;;;;;;;2079418;28;20398;-74
2023/12/31 07:19:22;;;;;;;2.08;1.42;;;;;;;;;;2076524;28;20033;-75
2023/12/31 07:20:41;;;;;;;2.03;1.30;;;;;;;;;;2078479;28;20053;-76
2023/12/31 07:22:00;;;;;;;2.38;1.20;;;;;;;;;;2074400;28;20037;-75
2023/12/31 07:23:19;;;;;;;1.30;1.20;;;;;;;;;;2076814;28;20025;-75
2023/12/31 07:24:39;;;;;;;1.38;1.15;;;;;;;;;;2073666;28;20037;-75
2023/12/31 07:25:58;;;;;;;1.73;1.60;;;;;;;;;;2077312;28;20022;-75
2023/12/31 07:27:17;;;;;;;1.48;1.38;;;;;;;;;;2088768;28;20037;-76
2023/12/31 07:28:37;;;;;;;1.42;1.33;;;;;;;;;;2083236;28;20060;-75
2023/12/31 07:29:56;;;;;;;1.50;1.40;;;;;;;;;;2076509;28;20045;-75
2023/12/31 07:31:14;;;;;;;1.20;1.10;;;;;;;;;;2077992;28;20022;-75
2023/12/31 07:32:33;;;;;;;1.42;1.33;;;;;;;;;;2080789;28;20383;-76
2023/12/31 07:33:52;;;;;;;1.83;1.73;;;;;;;;;;2080538;28;20042;-75
2023/12/31 07:35:11;;;;;;;3.58;1.45;;;;;;;;;;2081082;28;20029;-76
2023/12/31 07:36:30;;;;;;;2.35;1.20;;;;;;;;;;2081071;28;20034;-75
2023/12/31 07:37:49;;;;;;;2.22;1.48;;;;;;;;;;2080769;28;20438;-75
2023/12/31 07:39:08;;;;;;;2.83;1.30;;;;;;;;;;2074558;28;20038;-75
2023/12/31 07:40:27;;;;;;;1.73;1.45;;;;;;;;;;2073970;28;20019;-76
2023/12/31 07:41:46;;;;;;;1.00;1.00;;;;;;;;;;2072513;28;20042;-75
2023/12/31 07:43:05;;;;;;;2.40;1.33;;;;;;;;;;2078912;28;20069;-77
2023/12/31 07:44:24;;;;;;;1.70;1.30;;;;;;;;;;2085601;28;20030;-75
2023/12/31 07:45:44;;;;;;;3.55;1.45;;;;;;;;;;2081184;28;20030;-76
2023/12/31 07:47:03;;;;;;;1.77;1.67;;;;;;;;;;2076787;28;20069;-75
2023/12/31 07:48:22;;;;;;;1.75;1.52;;;;;;;;;;2079039;28;20033;-75
2023/12/31 07:49:41;;;;;;;1.60;1.50;;;;;;;;;;2080916;28;20510;-75
2023/12/31 07:51:03;;;;;;;1.50;1.40;;;;;;;;;;2076338;28;20782;-75
2023/12/31 07:52:25;;;;;;;3.28;1.88;;;;;;;;;;2078124;28;20052;-75
2023/12/31 07:53:44;;;;;;;1.70;1.52;;;;;;;;;;2079132;28;20033;-75
2023/12/31 07:55:03;;;;;;;2.65;1.70;;;;;;;;;;2080608;28;20025;-75